Time;durP1;ratioP1;P1;durP2;ratioP2;P2;SDS_P1;SDS_P2;PMS_P1;PMS_P2;Temp;Humidity;BMP_temperature;BMP_pressure;BME280_temperature;BME280_humidity;BME280_pressure;Samples;Min_cycle;Max_cycle;Signal;HPM_P1;HPM_P2
2022/01/09 00:00:37;;;;;;;2.3;1.5;;;;;;;-0.09;91.28125;93588.48;;;;
2022/01/09 00:01:38;;;;;;;2.3;1.5;;;;;;;-0.09;91.28125;93588.48;;;;
2022/01/09 00:02:38;;;;;;;2.3;1.5;;;;;;;-0.09;91.28125;93588.48;;;;
2022/01/09 00:03:39;;;;;;;2.3;1.5;;;;;;;-0.09;91.28125;93588.48;;;;
2022/01/09 00:04:40;;;;;;;2.3;1.5;;;;;;;-0.09;91.28125;93588.48;;;;
2022/01/09 00:05:40;;;;;;;2.3;1.5;;;;;;;-0.09;91.28125;93588.48;;;;
2022/01/09 00:06:41;;;;;;;2.3;1.5;;;;;;;-0.09;91.28125;93588.48;;;;
2022/01/09 00:07:41;;;;;;;2.3;1.5;;;;;;;-0.09;91.28125;93588.48;;;;
2022/01/09 00:08:44;;;;;;;2.3;1.5;;;;;;;-0.09;91.28125;93588.48;;;;
2022/01/09 00:09:45;;;;;;;2.3;1.5;;;;;;;-0.09;91.28125;93588.48;;;;
2022/01/09 00:10:47;;;;;;;1.7;1.3;;;;;;;0.14;91.16113;93572.96;;;;
2022/01/09 00:11:47;;;;;;;1.7;1.3;;;;;;;0.14;91.16113;93572.96;;;;
2022/01/09 00:12:48;;;;;;;1.7;1.3;;;;;;;0.14;91.16113;93572.96;;;;
2022/01/09 00:13:49;;;;;;;1.7;1.3;;;;;;;0.14;91.16113;93572.96;;;;
2022/01/09 00:14:49;;;;;;;1.7;1.3;;;;;;;0.14;91.16113;93572.96;;;;
2022/01/09 00:15:50;;;;;;;1.7;1.3;;;;;;;0.14;91.16113;93572.96;;;;
2022/01/09 00:16:51;;;;;;;1.7;1.3;;;;;;;0.14;91.16113;93572.96;;;;
2022/01/09 00:17:51;;;;;;;1.7;1.3;;;;;;;0.14;91.16113;93572.96;;;;
2022/01/09 00:18:52;;;;;;;1.7;1.3;;;;;;;0.14;91.16113;93572.96;;;;
2022/01/09 00:19:52;;;;;;;1.7;1.3;;;;;;;0.14;91.16113;93572.96;;;;
2022/01/09 00:20:53;;;;;;;1.7;1.3;;;;;;;0.14;91.16113;93572.96;;;;
2022/01/09 00:21:54;;;;;;;1.75;1.3;;;;;;;0.34;90.97656;93565.25;;;;
2022/01/09 00:22:55;;;;;;;1.75;1.3;;;;;;;0.34;90.97656;93565.25;;;;
2022/01/09 00:23:56;;;;;;;1.75;1.3;;;;;;;0.34;90.97656;93565.25;;;;
2022/01/09 00:24:56;;;;;;;1.75;1.3;;;;;;;0.34;90.97656;93565.25;;;;
2022/01/09 00:25:57;;;;;;;1.75;1.3;;;;;;;0.34;90.97656;93565.25;;;;
2022/01/09 00:26:57;;;;;;;1.75;1.3;;;;;;;0.34;90.97656;93565.25;;;;
2022/01/09 00:27:58;;;;;;;1.75;1.3;;;;;;;0.34;90.97656;93565.25;;;;
2022/01/09 00:28:58;;;;;;;1.75;1.3;;;;;;;0.34;90.97656;93565.25;;;;
2022/01/09 00:29:59;;;;;;;1.75;1.3;;;;;;;0.34;90.97656;93565.25;;;;
2022/01/09 00:30:59;;;;;;;1.75;1.3;;;;;;;0.34;90.97656;93565.25;;;;
2022/01/09 00:32:00;;;;;;;1.75;1.3;;;;;;;0.34;90.97656;93565.25;;;;
2022/01/09 00:33:01;;;;;;;2.55;1.4;;;;;;;0.47;90.7959;93560.22;;;;
2022/01/09 00:34:01;;;;;;;2.55;1.4;;;;;;;0.47;90.7959;93560.22;;;;
2022/01/09 00:35:02;;;;;;;2.55;1.4;;;;;;;0.47;90.7959;93560.22;;;;
2022/01/09 00:36:04;;;;;;;2.55;1.4;;;;;;;0.47;90.7959;93560.22;;;;
2022/01/09 00:37:05;;;;;;;2.55;1.4;;;;;;;0.47;90.7959;93560.22;;;;
2022/01/09 00:38:05;;;;;;;2.55;1.4;;;;;;;0.47;90.7959;93560.22;;;;
2022/01/09 00:39:06;;;;;;;2.55;1.4;;;;;;;0.47;90.7959;93560.22;;;;
2022/01/09 00:40:06;;;;;;;2.55;1.4;;;;;;;0.47;90.7959;93560.22;;;;
2022/01/09 00:41:09;;;;;;;2.55;1.4;;;;;;;0.47;90.7959;93560.22;;;;
2022/01/09 00:42:10;;;;;;;2.55;1.4;;;;;;;0.47;90.7959;93560.22;;;;
2022/01/09 00:43:10;;;;;;;1.85;1.55;;;;;;;0.58;90.72656;93525;;;;
2022/01/09 00:44:11;;;;;;;1.85;1.55;;;;;;;0.58;90.72656;93525;;;;
2022/01/09 00:45:12;;;;;;;1.85;1.55;;;;;;;0.58;90.72656;93525;;;;
2022/01/09 00:46:14;;;;;;;1.85;1.55;;;;;;;0.58;90.72656;93525;;;;
2022/01/09 00:47:15;;;;;;;1.85;1.55;;;;;;;0.58;90.72656;93525;;;;
2022/01/09 00:48:15;;;;;;;1.85;1.55;;;;;;;0.58;90.72656;93525;;;;
2022/01/09 00:49:16;;;;;;;1.85;1.55;;;;;;;0.58;90.72656;93525;;;;
2022/01/09 00:50:16;;;;;;;1.85;1.55;;;;;;;0.58;90.72656;93525;;;;
2022/01/09 00:51:17;;;;;;;1.85;1.55;;;;;;;0.58;90.72656;93525;;;;
2022/01/09 00:52:18;;;;;;;1.85;1.55;;;;;;;0.58;90.72656;93525;;;;
2022/01/09 00:53:18;;;;;;;1.85;1.55;;;;;;;0.58;90.72656;93525;;;;
2022/01/09 00:54:19;;;;;;;2;1.45;;;;;;;0.69;90.79883;93515.5;;;;
2022/01/09 00:55:20;;;;;;;2;1.45;;;;;;;0.69;90.79883;93515.5;;;;
2022/01/09 00:56:20;;;;;;;2;1.45;;;;;;;0.69;90.79883;93515.5;;;;
2022/01/09 00:57:21;;;;;;;2;1.45;;;;;;;0.69;90.79883;93515.5;;;;
2022/01/09 00:58:21;;;;;;;2;1.45;;;;;;;0.69;90.79883;93515.5;;;;
2022/01/09 00:59:22;;;;;;;2;1.45;;;;;;;0.69;90.79883;93515.5;;;;
2022/01/09 01:00:22;;;;;;;2;1.45;;;;;;;0.69;90.79883;93515.5;;;;
2022/01/09 01:01:23;;;;;;;2;1.45;;;;;;;0.69;90.79883;93515.5;;;;
2022/01/09 01:02:23;;;;;;;2;1.45;;;;;;;0.69;90.79883;93515.5;;;;
2022/01/09 01:03:24;;;;;;;2;1.45;;;;;;;0.69;90.79883;93515.5;;;;
2022/01/09 01:04:25;;;;;;;1.65;1.4;;;;;;;0.76;90.78613;93478.56;;;;
2022/01/09 01:05:27;;;;;;;1.65;1.4;;;;;;;0.76;90.78613;93478.56;;;;
2022/01/09 01:06:27;;;;;;;1.65;1.4;;;;;;;0.76;90.78613;93478.56;;;;
2022/01/09 01:07:28;;;;;;;1.65;1.4;;;;;;;0.76;90.78613;93478.56;;;;
2022/01/09 01:08:29;;;;;;;1.65;1.4;;;;;;;0.76;90.78613;93478.56;;;;
2022/01/09 01:09:31;;;;;;;1.65;1.4;;;;;;;0.76;90.78613;93478.56;;;;
2022/01/09 01:10:31;;;;;;;1.65;1.4;;;;;;;0.76;90.78613;93478.56;;;;
2022/01/09 01:11:32;;;;;;;1.65;1.4;;;;;;;0.76;90.78613;93478.56;;;;
2022/01/09 01:12:32;;;;;;;1.65;1.4;;;;;;;0.76;90.78613;93478.56;;;;
2022/01/09 01:13:33;;;;;;;1.65;1.4;;;;;;;0.76;90.78613;93478.56;;;;
2022/01/09 01:14:34;;;;;;;1.65;1.4;;;;;;;0.76;90.78613;93478.56;;;;
2022/01/09 01:15:34;;;;;;;1.6;1.3;;;;;;;0.81;90.86816;93479.66;;;;
2022/01/09 01:16:35;;;;;;;1.6;1.3;;;;;;;0.81;90.86816;93479.66;;;;
2022/01/09 01:17:36;;;;;;;1.6;1.3;;;;;;;0.81;90.86816;93479.66;;;;
2022/01/09 01:18:37;;;;;;;1.6;1.3;;;;;;;0.81;90.86816;93479.66;;;;
2022/01/09 01:19:37;;;;;;;1.6;1.3;;;;;;;0.81;90.86816;93479.66;;;;
2022/01/09 01:20:38;;;;;;;1.6;1.3;;;;;;;0.81;90.86816;93479.66;;;;
2022/01/09 01:21:38;;;;;;;1.6;1.3;;;;;;;0.81;90.86816;93479.66;;;;
2022/01/09 01:22:39;;;;;;;1.6;1.3;;;;;;;0.81;90.86816;93479.66;;;;
2022/01/09 01:23:40;;;;;;;1.6;1.3;;;;;;;0.81;90.86816;93479.66;;;;
2022/01/09 01:24:41;;;;;;;1.6;1.3;;;;;;;0.81;90.86816;93479.66;;;;
2022/01/09 01:25:44;;;;;;;2.2;1.4;;;;;;;0.9;90.96973;93492.94;;;;
2022/01/09 01:26:45;;;;;;;2.2;1.4;;;;;;;0.9;90.96973;93492.94;;;;
2022/01/09 01:27:45;;;;;;;2.2;1.4;;;;;;;0.9;90.96973;93492.94;;;;
2022/01/09 01:28:46;;;;;;;2.2;1.4;;;;;;;0.9;90.96973;93492.94;;;;
2022/01/09 01:29:47;;;;;;;2.2;1.4;;;;;;;0.9;90.96973;93492.94;;;;
2022/01/09 01:30:47;;;;;;;2.2;1.4;;;;;;;0.9;90.96973;93492.94;;;;
2022/01/09 01:31:48;;;;;;;2.2;1.4;;;;;;;0.9;90.96973;93492.94;;;;
2022/01/09 01:32:48;;;;;;;2.2;1.4;;;;;;;0.9;90.96973;93492.94;;;;
2022/01/09 01:33:49;;;;;;;2.2;1.4;;;;;;;0.9;90.96973;93492.94;;;;
2022/01/09 01:34:50;;;;;;;2.2;1.4;;;;;;;0.9;90.96973;93492.94;;;;
2022/01/09 01:35:50;;;;;;;2.2;1.4;;;;;;;0.9;90.96973;93492.94;;;;
2022/01/09 01:36:51;;;;;;;1.95;1.2;;;;;;;0.96;90.91113;93520.34;;;;
2022/01/09 01:37:51;;;;;;;1.95;1.2;;;;;;;0.96;90.91113;93520.34;;;;
2022/01/09 01:38:52;;;;;;;1.95;1.2;;;;;;;0.96;90.91113;93520.34;;;;
2022/01/09 01:39:52;;;;;;;1.95;1.2;;;;;;;0.96;90.91113;93520.34;;;;
2022/01/09 01:40:53;;;;;;;1.95;1.2;;;;;;;0.96;90.91113;93520.34;;;;
2022/01/09 01:41:53;;;;;;;1.95;1.2;;;;;;;0.96;90.91113;93520.34;;;;
2022/01/09 01:42:54;;;;;;;1.95;1.2;;;;;;;0.96;90.91113;93520.34;;;;
2022/01/09 01:43:55;;;;;;;1.95;1.2;;;;;;;0.96;90.91113;93520.34;;;;
2022/01/09 01:44:55;;;;;;;1.95;1.2;;;;;;;0.96;90.91113;93520.34;;;;
2022/01/09 01:45:56;;;;;;;1.95;1.2;;;;;;;0.96;90.91113;93520.34;;;;
2022/01/09 01:47:00;;;;;;;1.5;1.3;;;;;;;1;90.9707;93436.91;;;;
2022/01/09 01:48:06;;;;;;;1.5;1.3;;;;;;;1;90.9707;93436.91;;;;
2022/01/09 01:49:06;;;;;;;1.5;1.3;;;;;;;1;90.9707;93436.91;;;;
2022/01/09 01:50:07;;;;;;;1.5;1.3;;;;;;;1;90.9707;93436.91;;;;
2022/01/09 01:51:10;;;;;;;1.5;1.3;;;;;;;1;90.9707;93436.91;;;;
2022/01/09 01:52:11;;;;;;;1.5;1.3;;;;;;;1;90.9707;93436.91;;;;
2022/01/09 01:53:17;;;;;;;1.5;1.3;;;;;;;1;90.9707;93436.91;;;;
2022/01/09 01:54:20;;;;;;;1.5;1.3;;;;;;;1;90.9707;93436.91;;;;
2022/01/09 01:55:21;;;;;;;1.5;1.3;;;;;;;1;90.9707;93436.91;;;;
2022/01/09 01:56:21;;;;;;;1.5;1.3;;;;;;;1;90.9707;93436.91;;;;
2022/01/09 01:57:23;;;;;;;1.25;1.1;;;;;;;1.07;91.29785;93494.36;;;;
2022/01/09 01:58:24;;;;;;;1.25;1.1;;;;;;;1.07;91.29785;93494.36;;;;
2022/01/09 01:59:25;;;;;;;1.25;1.1;;;;;;;1.07;91.29785;93494.36;;;;
2022/01/09 02:00:25;;;;;;;1.25;1.1;;;;;;;1.07;91.29785;93494.36;;;;
2022/01/09 02:01:26;;;;;;;1.25;1.1;;;;;;;1.07;91.29785;93494.36;;;;
2022/01/09 02:02:26;;;;;;;1.25;1.1;;;;;;;1.07;91.29785;93494.36;;;;
2022/01/09 02:03:27;;;;;;;1.25;1.1;;;;;;;1.07;91.29785;93494.36;;;;
2022/01/09 02:04:27;;;;;;;1.25;1.1;;;;;;;1.07;91.29785;93494.36;;;;
2022/01/09 02:05:28;;;;;;;1.25;1.1;;;;;;;1.07;91.29785;93494.36;;;;
2022/01/09 02:06:28;;;;;;;1.25;1.1;;;;;;;1.07;91.29785;93494.36;;;;
2022/01/09 02:07:29;;;;;;;1.25;1.1;;;;;;;1.07;91.29785;93494.36;;;;
2022/01/09 02:08:29;;;;;;;2.15;1.4;;;;;;;1.19;91.29004;93490.05;;;;
2022/01/09 02:09:30;;;;;;;2.15;1.4;;;;;;;1.19;91.29004;93490.05;;;;
2022/01/09 02:10:31;;;;;;;2.15;1.4;;;;;;;1.19;91.29004;93490.05;;;;
2022/01/09 02:11:31;;;;;;;2.15;1.4;;;;;;;1.19;91.29004;93490.05;;;;
2022/01/09 02:12:35;;;;;;;2.15;1.4;;;;;;;1.19;91.29004;93490.05;;;;
2022/01/09 02:13:40;;;;;;;2.15;1.4;;;;;;;1.19;91.29004;93490.05;;;;
2022/01/09 02:14:44;;;;;;;2.15;1.4;;;;;;;1.19;91.29004;93490.05;;;;
2022/01/09 02:15:46;;;;;;;2.15;1.4;;;;;;;1.19;91.29004;93490.05;;;;
2022/01/09 02:16:48;;;;;;;2.15;1.4;;;;;;;1.19;91.29004;93490.05;;;;
2022/01/09 02:17:49;;;;;;;2.15;1.4;;;;;;;1.19;91.29004;93490.05;;;;
2022/01/09 02:18:50;;;;;;;1.3;1.15;;;;;;;1.18;91.30078;93504.77;;;;
2022/01/09 02:19:51;;;;;;;1.3;1.15;;;;;;;1.18;91.30078;93504.77;;;;
2022/01/09 02:20:53;;;;;;;1.3;1.15;;;;;;;1.18;91.30078;93504.77;;;;
2022/01/09 02:21:54;;;;;;;1.3;1.15;;;;;;;1.18;91.30078;93504.77;;;;
2022/01/09 02:22:55;;;;;;;1.3;1.15;;;;;;;1.18;91.30078;93504.77;;;;
2022/01/09 02:23:56;;;;;;;1.3;1.15;;;;;;;1.18;91.30078;93504.77;;;;
2022/01/09 02:24:56;;;;;;;1.3;1.15;;;;;;;1.18;91.30078;93504.77;;;;
2022/01/09 02:25:58;;;;;;;1.3;1.15;;;;;;;1.18;91.30078;93504.77;;;;
2022/01/09 02:26:58;;;;;;;1.3;1.15;;;;;;;1.18;91.30078;93504.77;;;;
2022/01/09 02:28:03;;;;;;;1.3;1.15;;;;;;;1.18;91.30078;93504.77;;;;
2022/01/09 02:29:05;;;;;;;1.3;1.15;;;;;;;1.18;91.30078;93504.77;;;;
2022/01/09 02:30:06;;;;;;;1.3;1.2;;;;;;;1.23;91.64355;93463.3;;;;
2022/01/09 02:31:09;;;;;;;1.3;1.2;;;;;;;1.23;91.64355;93463.3;;;;
2022/01/09 02:32:09;;;;;;;1.3;1.2;;;;;;;1.23;91.64355;93463.3;;;;
2022/01/09 02:33:10;;;;;;;1.3;1.2;;;;;;;1.23;91.64355;93463.3;;;;
2022/01/09 02:34:15;;;;;;;1.3;1.2;;;;;;;1.23;91.64355;93463.3;;;;
2022/01/09 02:35:16;;;;;;;1.3;1.2;;;;;;;1.23;91.64355;93463.3;;;;
2022/01/09 02:36:16;;;;;;;1.3;1.2;;;;;;;1.23;91.64355;93463.3;;;;
2022/01/09 02:37:17;;;;;;;1.3;1.2;;;;;;;1.23;91.64355;93463.3;;;;
2022/01/09 02:38:18;;;;;;;1.3;1.2;;;;;;;1.23;91.64355;93463.3;;;;
2022/01/09 02:39:19;;;;;;;1.3;1.2;;;;;;;1.23;91.64355;93463.3;;;;
2022/01/09 02:40:22;;;;;;;1.8;1.15;;;;;;;1.17;91.78809;93446.39;;;;
2022/01/09 02:41:23;;;;;;;1.8;1.15;;;;;;;1.17;91.78809;93446.39;;;;
2022/01/09 02:42:25;;;;;;;1.8;1.15;;;;;;;1.17;91.78809;93446.39;;;;
2022/01/09 02:43:26;;;;;;;1.8;1.15;;;;;;;1.17;91.78809;93446.39;;;;
2022/01/09 02:44:27;;;;;;;1.8;1.15;;;;;;;1.17;91.78809;93446.39;;;;
2022/01/09 02:45:28;;;;;;;1.8;1.15;;;;;;;1.17;91.78809;93446.39;;;;
2022/01/09 02:46:40;;;;;;;1.8;1.15;;;;;;;1.17;91.78809;93446.39;;;;
2022/01/09 02:47:42;;;;;;;1.8;1.15;;;;;;;1.17;91.78809;93446.39;;;;
2022/01/09 02:48:43;;;;;;;1.8;1.15;;;;;;;1.17;91.78809;93446.39;;;;
2022/01/09 02:49:48;;;;;;;1.8;1.15;;;;;;;1.17;91.78809;93446.39;;;;
2022/01/09 02:51:00;;;;;;;1.2;1.1;;;;;;;1.15;92.53125;93442.36;;;;
2022/01/09 02:52:05;;;;;;;1.2;1.1;;;;;;;1.15;92.53125;93442.36;;;;
2022/01/09 02:53:15;;;;;;;1.2;1.1;;;;;;;1.15;92.53125;93442.36;;;;
2022/01/09 02:55:20;;;;;;;1.2;1.1;;;;;;;1.15;92.53125;93442.36;;;;
2022/01/09 02:56:23;;;;;;;1.2;1.1;;;;;;;1.15;92.53125;93442.36;;;;
2022/01/09 02:57:23;;;;;;;1.2;1.1;;;;;;;1.15;92.53125;93442.36;;;;
2022/01/09 02:58:24;;;;;;;1.2;1.1;;;;;;;1.15;92.53125;93442.36;;;;
2022/01/09 02:59:24;;;;;;;1.2;1.1;;;;;;;1.15;92.53125;93442.36;;;;
2022/01/09 03:00:25;;;;;;;1.2;1.1;;;;;;;1.15;92.53125;93442.36;;;;
2022/01/09 03:01:27;;;;;;;1.65;1.5;;;;;;;1.21;92.93066;93421.91;;;;
2022/01/09 03:02:28;;;;;;;1.65;1.5;;;;;;;1.21;92.93066;93421.91;;;;
2022/01/09 03:03:28;;;;;;;1.65;1.5;;;;;;;1.21;92.93066;93421.91;;;;
2022/01/09 03:04:29;;;;;;;1.65;1.5;;;;;;;1.21;92.93066;93421.91;;;;
2022/01/09 03:05:29;;;;;;;1.65;1.5;;;;;;;1.21;92.93066;93421.91;;;;
2022/01/09 03:06:30;;;;;;;1.65;1.5;;;;;;;1.21;92.93066;93421.91;;;;
2022/01/09 03:07:31;;;;;;;1.65;1.5;;;;;;;1.21;92.93066;93421.91;;;;
2022/01/09 03:08:31;;;;;;;1.65;1.5;;;;;;;1.21;92.93066;93421.91;;;;
2022/01/09 03:09:32;;;;;;;1.65;1.5;;;;;;;1.21;92.93066;93421.91;;;;
2022/01/09 03:10:33;;;;;;;1.65;1.5;;;;;;;1.21;92.93066;93421.91;;;;
2022/01/09 03:11:33;;;;;;;1.65;1.5;;;;;;;1.21;92.93066;93421.91;;;;
2022/01/09 03:12:34;;;;;;;1.3;1.2;;;;;;;1.22;92.97461;93395.65;;;;
2022/01/09 03:13:36;;;;;;;1.3;1.2;;;;;;;1.22;92.97461;93395.65;;;;
2022/01/09 03:14:37;;;;;;;1.3;1.2;;;;;;;1.22;92.97461;93395.65;;;;
2022/01/09 03:15:37;;;;;;;1.3;1.2;;;;;;;1.22;92.97461;93395.65;;;;
2022/01/09 03:16:38;;;;;;;1.3;1.2;;;;;;;1.22;92.97461;93395.65;;;;
2022/01/09 03:17:38;;;;;;;1.3;1.2;;;;;;;1.22;92.97461;93395.65;;;;
2022/01/09 03:18:39;;;;;;;1.3;1.2;;;;;;;1.22;92.97461;93395.65;;;;
2022/01/09 03:19:40;;;;;;;1.3;1.2;;;;;;;1.22;92.97461;93395.65;;;;
2022/01/09 03:20:40;;;;;;;1.3;1.2;;;;;;;1.22;92.97461;93395.65;;;;
2022/01/09 03:21:41;;;;;;;1.3;1.2;;;;;;;1.22;92.97461;93395.65;;;;
2022/01/09 03:22:41;;;;;;;1.3;1.2;;;;;;;1.22;92.97461;93395.65;;;;
2022/01/09 03:23:42;;;;;;;1.75;1.2;;;;;;;1.09;93.1123;93370.06;;;;
2022/01/09 03:24:43;;;;;;;1.75;1.2;;;;;;;1.09;93.1123;93370.06;;;;
2022/01/09 03:25:43;;;;;;;1.75;1.2;;;;;;;1.09;93.1123;93370.06;;;;
2022/01/09 03:26:44;;;;;;;1.75;1.2;;;;;;;1.09;93.1123;93370.06;;;;
2022/01/09 03:27:45;;;;;;;1.75;1.2;;;;;;;1.09;93.1123;93370.06;;;;
2022/01/09 03:28:46;;;;;;;1.75;1.2;;;;;;;1.09;93.1123;93370.06;;;;
2022/01/09 03:29:46;;;;;;;1.75;1.2;;;;;;;1.09;93.1123;93370.06;;;;
2022/01/09 03:30:47;;;;;;;1.75;1.2;;;;;;;1.09;93.1123;93370.06;;;;
2022/01/09 03:31:47;;;;;;;1.75;1.2;;;;;;;1.09;93.1123;93370.06;;;;
2022/01/09 03:32:48;;;;;;;1.75;1.2;;;;;;;1.09;93.1123;93370.06;;;;
2022/01/09 03:33:50;;;;;;;1;1;;;;;;;0.96;93.61621;93371.97;;;;
2022/01/09 03:34:50;;;;;;;1;1;;;;;;;0.96;93.61621;93371.97;;;;
2022/01/09 03:35:51;;;;;;;1;1;;;;;;;0.96;93.61621;93371.97;;;;
2022/01/09 03:36:51;;;;;;;1;1;;;;;;;0.96;93.61621;93371.97;;;;
2022/01/09 03:37:52;;;;;;;1;1;;;;;;;0.96;93.61621;93371.97;;;;
2022/01/09 03:38:53;;;;;;;1;1;;;;;;;0.96;93.61621;93371.97;;;;
2022/01/09 03:39:53;;;;;;;1;1;;;;;;;0.96;93.61621;93371.97;;;;
2022/01/09 03:40:54;;;;;;;1;1;;;;;;;0.96;93.61621;93371.97;;;;
2022/01/09 03:41:58;;;;;;;1;1;;;;;;;0.96;93.61621;93371.97;;;;
2022/01/09 03:42:58;;;;;;;1;1;;;;;;;0.96;93.61621;93371.97;;;;
2022/01/09 03:43:59;;;;;;;1;1;;;;;;;0.96;93.61621;93371.97;;;;
2022/01/09 03:45:00;;;;;;;1.3;1.1;;;;;;;0.87;94.20996;93363.61;;;;
2022/01/09 03:46:00;;;;;;;1.3;1.1;;;;;;;0.87;94.20996;93363.61;;;;
2022/01/09 03:47:01;;;;;;;1.3;1.1;;;;;;;0.87;94.20996;93363.61;;;;
2022/01/09 03:48:01;;;;;;;1.3;1.1;;;;;;;0.87;94.20996;93363.61;;;;
2022/01/09 03:49:02;;;;;;;1.3;1.1;;;;;;;0.87;94.20996;93363.61;;;;
2022/01/09 03:50:03;;;;;;;1.3;1.1;;;;;;;0.87;94.20996;93363.61;;;;
2022/01/09 03:51:05;;;;;;;1.3;1.1;;;;;;;0.87;94.20996;93363.61;;;;
2022/01/09 03:52:05;;;;;;;1.3;1.1;;;;;;;0.87;94.20996;93363.61;;;;
2022/01/09 03:53:11;;;;;;;1.3;1.1;;;;;;;0.87;94.20996;93363.61;;;;
2022/01/09 03:54:13;;;;;;;1.3;1.1;;;;;;;0.87;94.20996;93363.61;;;;
2022/01/09 03:55:13;;;;;;;2.8;1.2;;;;;;;0.85;94.53809;93369.65;;;;
2022/01/09 03:56:14;;;;;;;2.8;1.2;;;;;;;0.85;94.53809;93369.65;;;;
2022/01/09 03:57:15;;;;;;;2.8;1.2;;;;;;;0.85;94.53809;93369.65;;;;
2022/01/09 03:58:15;;;;;;;2.8;1.2;;;;;;;0.85;94.53809;93369.65;;;;
2022/01/09 03:59:15;;;;;;;2.8;1.2;;;;;;;0.85;94.53809;93369.65;;;;
2022/01/09 04:00:16;;;;;;;2.8;1.2;;;;;;;0.85;94.53809;93369.65;;;;
2022/01/09 04:01:19;;;;;;;2.8;1.2;;;;;;;0.85;94.53809;93369.65;;;;
2022/01/09 04:02:20;;;;;;;2.8;1.2;;;;;;;0.85;94.53809;93369.65;;;;
2022/01/09 04:03:21;;;;;;;2.8;1.2;;;;;;;0.85;94.53809;93369.65;;;;
2022/01/09 04:04:23;;;;;;;2.8;1.2;;;;;;;0.85;94.53809;93369.65;;;;
2022/01/09 04:05:23;;;;;;;2.8;1.2;;;;;;;0.85;94.53809;93369.65;;;;
2022/01/09 04:06:24;;;;;;;2.6;0.9;;;;;;;0.86;94.9248;93368.64;;;;
2022/01/09 04:07:24;;;;;;;2.6;0.9;;;;;;;0.86;94.9248;93368.64;;;;
2022/01/09 04:08:25;;;;;;;2.6;0.9;;;;;;;0.86;94.9248;93368.64;;;;
2022/01/09 04:09:28;;;;;;;2.6;0.9;;;;;;;0.86;94.9248;93368.64;;;;
2022/01/09 04:10:29;;;;;;;2.6;0.9;;;;;;;0.86;94.9248;93368.64;;;;
2022/01/09 04:11:35;;;;;;;2.6;0.9;;;;;;;0.86;94.9248;93368.64;;;;
2022/01/09 04:12:47;;;;;;;2.6;0.9;;;;;;;0.86;94.9248;93368.64;;;;
2022/01/09 04:13:47;;;;;;;2.6;0.9;;;;;;;0.86;94.9248;93368.64;;;;
2022/01/09 04:14:48;;;;;;;2.6;0.9;;;;;;;0.86;94.9248;93368.64;;;;
2022/01/09 04:15:49;;;;;;;2.6;0.9;;;;;;;0.86;94.9248;93368.64;;;;
2022/01/09 04:16:50;;;;;;;1.5;1;;;;;;;0.91;95.20508;93381.23;;;;
2022/01/09 04:17:51;;;;;;;1.5;1;;;;;;;0.91;95.20508;93381.23;;;;
2022/01/09 04:18:53;;;;;;;1.5;1;;;;;;;0.91;95.20508;93381.23;;;;
2022/01/09 04:19:54;;;;;;;1.5;1;;;;;;;0.91;95.20508;93381.23;;;;
2022/01/09 04:20:54;;;;;;;1.5;1;;;;;;;0.91;95.20508;93381.23;;;;
2022/01/09 04:21:55;;;;;;;1.5;1;;;;;;;0.91;95.20508;93381.23;;;;
2022/01/09 04:22:55;;;;;;;1.5;1;;;;;;;0.91;95.20508;93381.23;;;;
2022/01/09 04:23:57;;;;;;;1.5;1;;;;;;;0.91;95.20508;93381.23;;;;
2022/01/09 04:24:57;;;;;;;1.5;1;;;;;;;0.91;95.20508;93381.23;;;;
2022/01/09 04:25:58;;;;;;;1.5;1;;;;;;;0.91;95.20508;93381.23;;;;
2022/01/09 04:26:58;;;;;;;1.1;0.85;;;;;;;1.04;95.22461;93392.52;;;;
2022/01/09 04:27:59;;;;;;;1.1;0.85;;;;;;;1.04;95.22461;93392.52;;;;
2022/01/09 04:28:59;;;;;;;1.1;0.85;;;;;;;1.04;95.22461;93392.52;;;;
2022/01/09 04:30:00;;;;;;;1.1;0.85;;;;;;;1.04;95.22461;93392.52;;;;
2022/01/09 04:31:01;;;;;;;1.1;0.85;;;;;;;1.04;95.22461;93392.52;;;;
2022/01/09 04:32:01;;;;;;;1.1;0.85;;;;;;;1.04;95.22461;93392.52;;;;
2022/01/09 04:33:02;;;;;;;1.1;0.85;;;;;;;1.04;95.22461;93392.52;;;;
2022/01/09 04:34:03;;;;;;;1.1;0.85;;;;;;;1.04;95.22461;93392.52;;;;
2022/01/09 04:35:03;;;;;;;1.1;0.85;;;;;;;1.04;95.22461;93392.52;;;;
2022/01/09 04:36:05;;;;;;;1.1;0.85;;;;;;;1.04;95.22461;93392.52;;;;
2022/01/09 04:37:05;;;;;;;1.1;0.85;;;;;;;1.04;95.22461;93392.52;;;;
2022/01/09 04:38:06;;;;;;;1.55;0.85;;;;;;;1.07;94.99121;93384.09;;;;
2022/01/09 04:39:06;;;;;;;1.55;0.85;;;;;;;1.07;94.99121;93384.09;;;;
2022/01/09 04:40:08;;;;;;;1.55;0.85;;;;;;;1.07;94.99121;93384.09;;;;
2022/01/09 04:41:10;;;;;;;1.55;0.85;;;;;;;1.07;94.99121;93384.09;;;;
2022/01/09 04:42:11;;;;;;;1.55;0.85;;;;;;;1.07;94.99121;93384.09;;;;
2022/01/09 04:43:13;;;;;;;1.55;0.85;;;;;;;1.07;94.99121;93384.09;;;;
2022/01/09 04:44:13;;;;;;;1.55;0.85;;;;;;;1.07;94.99121;93384.09;;;;
2022/01/09 04:45:16;;;;;;;1.55;0.85;;;;;;;1.07;94.99121;93384.09;;;;
2022/01/09 04:46:23;;;;;;;1.55;0.85;;;;;;;1.07;94.99121;93384.09;;;;
2022/01/09 04:47:24;;;;;;;1.55;0.85;;;;;;;1.07;94.99121;93384.09;;;;
2022/01/09 04:48:24;;;;;;;1.1;0.85;;;;;;;1.1;95.34082;93377.12;;;;
2022/01/09 04:49:31;;;;;;;1.1;0.85;;;;;;;1.1;95.34082;93377.12;;;;
2022/01/09 04:50:34;;;;;;;1.1;0.85;;;;;;;1.1;95.34082;93377.12;;;;
2022/01/09 04:51:34;;;;;;;1.1;0.85;;;;;;;1.1;95.34082;93377.12;;;;
2022/01/09 04:52:38;;;;;;;1.1;0.85;;;;;;;1.1;95.34082;93377.12;;;;
2022/01/09 04:53:39;;;;;;;1.1;0.85;;;;;;;1.1;95.34082;93377.12;;;;
2022/01/09 04:54:39;;;;;;;1.1;0.85;;;;;;;1.1;95.34082;93377.12;;;;
2022/01/09 04:55:40;;;;;;;1.1;0.85;;;;;;;1.1;95.34082;93377.12;;;;
2022/01/09 04:56:43;;;;;;;1.1;0.85;;;;;;;1.1;95.34082;93377.12;;;;
2022/01/09 04:57:43;;;;;;;1.1;0.85;;;;;;;1.1;95.34082;93377.12;;;;
2022/01/09 04:58:44;;;;;;;1.1;0.85;;;;;;;1.1;95.34082;93377.12;;;;
2022/01/09 04:59:44;;;;;;;0.7;0.7;;;;;;;1.13;95.77539;93377.48;;;;
2022/01/09 05:00:45;;;;;;;0.7;0.7;;;;;;;1.13;95.77539;93377.48;;;;
2022/01/09 05:01:46;;;;;;;0.7;0.7;;;;;;;1.13;95.77539;93377.48;;;;
2022/01/09 05:02:46;;;;;;;0.7;0.7;;;;;;;1.13;95.77539;93377.48;;;;
2022/01/09 05:03:47;;;;;;;0.7;0.7;;;;;;;1.13;95.77539;93377.48;;;;
2022/01/09 05:04:47;;;;;;;0.7;0.7;;;;;;;1.13;95.77539;93377.48;;;;
2022/01/09 05:05:48;;;;;;;0.7;0.7;;;;;;;1.13;95.77539;93377.48;;;;
2022/01/09 05:06:48;;;;;;;0.7;0.7;;;;;;;1.13;95.77539;93377.48;;;;
2022/01/09 05:07:49;;;;;;;0.7;0.7;;;;;;;1.13;95.77539;93377.48;;;;
2022/01/09 05:08:49;;;;;;;0.7;0.7;;;;;;;1.13;95.77539;93377.48;;;;
2022/01/09 05:09:50;;;;;;;1.1;0.7;;;;;;;1.33;97.13086;93393.94;;;;
2022/01/09 05:10:50;;;;;;;1.1;0.7;;;;;;;1.33;97.13086;93393.94;;;;
2022/01/09 05:11:51;;;;;;;1.1;0.7;;;;;;;1.33;97.13086;93393.94;;;;
2022/01/09 05:12:51;;;;;;;1.1;0.7;;;;;;;1.33;97.13086;93393.94;;;;
2022/01/09 05:13:52;;;;;;;1.1;0.7;;;;;;;1.33;97.13086;93393.94;;;;
2022/01/09 05:14:52;;;;;;;1.1;0.7;;;;;;;1.33;97.13086;93393.94;;;;
2022/01/09 05:15:54;;;;;;;1.1;0.7;;;;;;;1.33;97.13086;93393.94;;;;
2022/01/09 05:16:55;;;;;;;1.1;0.7;;;;;;;1.33;97.13086;93393.94;;;;
2022/01/09 05:17:59;;;;;;;1.1;0.7;;;;;;;1.33;97.13086;93393.94;;;;
2022/01/09 05:19:04;;;;;;;1.1;0.7;;;;;;;1.33;97.13086;93393.94;;;;
2022/01/09 05:20:04;;;;;;;1.1;0.7;;;;;;;1.33;97.13086;93393.94;;;;
2022/01/09 05:21:06;;;;;;;0.4;0.4;;;;;;;1.99;98.76855;93426.61;;;;
2022/01/09 05:22:08;;;;;;;0.4;0.4;;;;;;;1.99;98.76855;93426.61;;;;
2022/01/09 05:23:08;;;;;;;0.4;0.4;;;;;;;1.99;98.76855;93426.61;;;;
2022/01/09 05:24:09;;;;;;;0.4;0.4;;;;;;;1.99;98.76855;93426.61;;;;
2022/01/09 05:25:09;;;;;;;0.4;0.4;;;;;;;1.99;98.76855;93426.61;;;;
2022/01/09 05:26:10;;;;;;;0.4;0.4;;;;;;;1.99;98.76855;93426.61;;;;
2022/01/09 05:27:11;;;;;;;0.4;0.4;;;;;;;1.99;98.76855;93426.61;;;;
2022/01/09 05:28:11;;;;;;;0.4;0.4;;;;;;;1.99;98.76855;93426.61;;;;
2022/01/09 05:29:12;;;;;;;0.4;0.4;;;;;;;1.99;98.76855;93426.61;;;;
2022/01/09 05:30:12;;;;;;;0.4;0.4;;;;;;;1.99;98.76855;93426.61;;;;
2022/01/09 05:31:13;;;;;;;0.6;0.6;;;;;;;2.46;98.7832;93410.44;;;;
2022/01/09 05:32:14;;;;;;;0.6;0.6;;;;;;;2.46;98.7832;93410.44;;;;
2022/01/09 05:33:14;;;;;;;0.6;0.6;;;;;;;2.46;98.7832;93410.44;;;;
2022/01/09 05:34:14;;;;;;;0.6;0.6;;;;;;;2.46;98.7832;93410.44;;;;
2022/01/09 05:35:15;;;;;;;0.6;0.6;;;;;;;2.46;98.7832;93410.44;;;;
2022/01/09 05:36:16;;;;;;;0.6;0.6;;;;;;;2.46;98.7832;93410.44;;;;
2022/01/09 05:37:16;;;;;;;0.6;0.6;;;;;;;2.46;98.7832;93410.44;;;;
2022/01/09 05:38:18;;;;;;;0.6;0.6;;;;;;;2.46;98.7832;93410.44;;;;
2022/01/09 05:39:18;;;;;;;0.6;0.6;;;;;;;2.46;98.7832;93410.44;;;;
2022/01/09 05:40:19;;;;;;;0.6;0.6;;;;;;;2.46;98.7832;93410.44;;;;
2022/01/09 05:41:20;;;;;;;0.6;0.6;;;;;;;2.46;98.7832;93410.44;;;;
2022/01/09 05:42:21;;;;;;;0.7;0.5;;;;;;;2.69;98.7832;93428.66;;;;
2022/01/09 05:43:21;;;;;;;0.7;0.5;;;;;;;2.69;98.7832;93428.66;;;;
2022/01/09 05:44:22;;;;;;;0.7;0.5;;;;;;;2.69;98.7832;93428.66;;;;
2022/01/09 05:45:22;;;;;;;0.7;0.5;;;;;;;2.69;98.7832;93428.66;;;;
2022/01/09 05:46:23;;;;;;;0.7;0.5;;;;;;;2.69;98.7832;93428.66;;;;
2022/01/09 05:47:24;;;;;;;0.7;0.5;;;;;;;2.69;98.7832;93428.66;;;;
2022/01/09 05:48:24;;;;;;;0.7;0.5;;;;;;;2.69;98.7832;93428.66;;;;
2022/01/09 05:49:25;;;;;;;0.7;0.5;;;;;;;2.69;98.7832;93428.66;;;;
2022/01/09 05:50:26;;;;;;;0.7;0.5;;;;;;;2.69;98.7832;93428.66;;;;
2022/01/09 05:51:26;;;;;;;0.7;0.5;;;;;;;2.69;98.7832;93428.66;;;;
2022/01/09 05:52:27;;;;;;;0.6;0.6;;;;;;;2.81;98.69629;93425.45;;;;
2022/01/09 05:53:27;;;;;;;0.6;0.6;;;;;;;2.81;98.69629;93425.45;;;;
2022/01/09 05:54:28;;;;;;;0.6;0.6;;;;;;;2.81;98.69629;93425.45;;;;
2022/01/09 05:55:29;;;;;;;0.6;0.6;;;;;;;2.81;98.69629;93425.45;;;;
2022/01/09 05:56:30;;;;;;;0.6;0.6;;;;;;;2.81;98.69629;93425.45;;;;
2022/01/09 05:57:31;;;;;;;0.6;0.6;;;;;;;2.81;98.69629;93425.45;;;;
2022/01/09 05:58:33;;;;;;;0.6;0.6;;;;;;;2.81;98.69629;93425.45;;;;
2022/01/09 05:59:34;;;;;;;0.6;0.6;;;;;;;2.81;98.69629;93425.45;;;;
2022/01/09 06:00:34;;;;;;;0.6;0.6;;;;;;;2.81;98.69629;93425.45;;;;
2022/01/09 06:01:35;;;;;;;0.6;0.6;;;;;;;2.81;98.69629;93425.45;;;;
2022/01/09 06:02:36;;;;;;;0.6;0.6;;;;;;;2.81;98.69629;93425.45;;;;